• Join FlightAware (Why Join?)
  • Login
  • US Flag 
07:45AM EDT


 

Airport Tracker/Info


-or-


 

Live Flight TrackerFlight Track Log ✈ LXJ609 ✈ 05-Jul-2013 ✈ KFRG - KTEB

Flight Track Log - Related Links

Times and Time Zones

All times are in EDT time to prevent confusion due to time zone crossing. See the LXJ609 flight status page for this flight to view local times or setup timezone preferences in your user account.

Time Position Orientation Groundspeed Altitude Reporting Facility
EDT Latitude Longitude Course Direction KTS MPH feet Rate Location/Type
02:02PM 40.6000 -73.4667 201° Southwest 252 290 3,100  Level New York TRACON
02:03PM 40.5333 -73.5167 210° Southwest 261 300 3,100  Level New York TRACON
02:04PM 40.4833 -73.5833 225° Southwest 255 293 3,100  Level New York TRACON
02:05PM 40.4333 -73.6500 225° Southwest 248 285 3,100  Level New York TRACON
02:06PM 40.3833 -73.7167 225° Southwest 255 293 3,100  Level New York TRACON
02:07PM 40.5556 -73.8101 208° Southwest  Level FlightAware Approximate
02:07PM 40.3167 -73.7500 201° Southwest 263 303 3,100  Level New York TRACON
02:09PM 40.3912 -73.7931 336° Northwest  Level Estimated
02:14PM 40.1333 -74.2667 65° Northeast 270 311 4,100  Level New York TRACON
02:15PM 40.1667 -74.3667 294° West 258 297 4,100  Level New York TRACON
02:16PM 40.7819 -74.0208 336° Northwest  Level Estimated
02:16PM 40.1833 -74.4500 285° West 266 306 4,100  Level New York TRACON
02:17PM 40.8377 -74.0535 336° Northwest  Level Estimated
02:17PM 40.2333 -74.5167 315° West 272 313 4,100  Level New York TRACON
02:18PM 40.8501 -74.0608 336° Northwest  Level Estimated
02:18PM 40.3000 -74.5333 349° North 281 323 4,100  Level New York TRACON
02:19PM 40.8501 -74.0608 65° Northeast  Level Estimated
02:19PM 40.3833 -74.5500 351° North 278 320 4,100  Level New York TRACON
02:20PM 40.4667 -74.5500 360° North 281 323 4,100  Level New York TRACON
02:21PM 40.5333 -74.5500 360° North 277 319 4,100  Level New York TRACON
02:23PM 40.7000 -74.5500 360° North 284 327 4,100 -120 Level New York TRACON
02:24PM 40.7667 -74.5167 21° North 288 331 3,900 -540 Descending New York TRACON
02:25PM 40.8333 -74.4833 21° North 274 315 3,100 -420 Descending New York TRACON
02:26PM 40.9167 -74.4500 17° North 281 323 3,100  Level New York TRACON
02:27PM 40.9833 -74.4167 21° North 292 336 3,100  Level New York TRACON
02:28PM 41.0000 -74.3167 78° East 286 329 3,100 -420 Level New York TRACON
02:29PM 41.0000 -74.2333 90° East 226 260 2,300 -540 Descending New York TRACON
02:30PM 41.0000 -74.1500 90° East 227 261 2,100 -120 Descending New York TRACON
02:31PM 41.0000 -74.0833 90° East 183 211 2,100  Level New York TRACON
02:32PM 40.9667 -74.0500 143° Southeast 181 208 2,100 -360 Level New York TRACON
02:33PM 40.9167 -74.0500 180° South 156 180 1,400 -780 Descending New York TRACON
02:34PM 40.8833 -74.0500 180° South 118 136 600 -660 Descending New York TRACON
02:35PM 40.8500 -74.0667 201° Southwest 124 143 200 -480 Descending New York TRACON
02:37PM 40.8501 -74.0608 North  Level Estimated
02:44PM 40.8501 -74.0608 180° South  Level Estimated
02:45PM 40.8501 -74.0608 180° South  Level Estimated
02:46PM 40.8501 -74.0608 180° South  Level Estimated
02:47PM 40.8501 -74.0608 180° South  Level Estimated